Flight Track Log - Related Links

Times and Time Zones

All times are in EDT time to prevent confusion due to time zone crossing. See the SWA253 flight status page for this flight to view local times or setup timezone preferences in your user account.

Time Position Orientation Groundspeed Altitude Reporting Facility
EDT Latitude Longitude Course Direction KTS km/h feet Rate Location/Type
Sat 21:51:36 28.4333 -81.3000 24° Northeast 154 285 600  Level Orlando TRACON
Sat 21:52:48 28.5000 -81.2667 24° Northeast 214 396 3,000 2,000 Climbing Orlando TRACON
Sat 21:53:48 28.5667 -81.2500 12° North 288 533 5,000 2,850 Climbing Orlando TRACON
Sat 21:54:48 28.6333 -81.2667 348° North 289 536 8,700 3,000 Climbing Orlando TRACON
Sat 21:56:20 28.7536 -81.3058 344° North 315 583 12,600 2,842 Climbing Jacksonville Center
Sat 21:57:20 28.8500 -81.3281 349° North 327 605 15,900 2,950 Climbing Jacksonville Center
Sat 21:58:20 28.9483 -81.3525 348° North 349 647 18,500 2,500 Climbing Jacksonville Center
Sat 21:59:20 29.0572 -81.3794 348° North 371 687 20,900 2,350 Climbing Jacksonville Center
Sat 22:00:20 29.1700 -81.3992 351° North 393 727 23,200 2,350 Climbing Jacksonville Center
Sat 22:01:20 29.2872 -81.4092 356° North 412 763 25,600 2,100 Climbing Jacksonville Center
Sat 22:02:20 29.4106 -81.4217 355° North 429 795 27,400 1,750 Climbing Jacksonville Center
Sat 22:03:20 29.5525 -81.4361 355° North 451 835 29,100 1,550 Climbing Jacksonville Center
Sat 22:04:20 29.6864 -81.4486 355° North 468 867 30,500 1,550 Climbing Jacksonville Center
Sat 22:05:20 29.8222 -81.4608 356° North 479 887 32,200 1,600 Climbing Jacksonville Center
Sat 22:06:20 29.9581 -81.4758 355° North 479 887 33,700 1,600 Climbing Jacksonville Center
Sat 22:07:20 30.0958 -81.4881 356° North 479 887 35,400 1,400 Climbing Jacksonville Center
Sat 22:08:20 30.2317 -81.4981 356° North 479 887 36,500 1,200 Climbing Jacksonville Center
Sat 22:09:20 30.3717 -81.5058 357° North 485 898 37,800 1,250 Climbing Jacksonville Center
Sat 22:10:20 30.5094 -81.4964 North 491 909 39,000 600 Climbing Jacksonville Center
Sat 22:11:20 30.6425 -81.4558 15° North 498 922 39,000  Level Jacksonville Center
Sat 22:12:20 30.7756 -81.3911 23° Northeast 498 922 39,000  Level Jacksonville Center
Sat 22:13:20 30.9064 -81.3283 22° Northeast 503 932 39,000  Level Jacksonville Center
Sat 22:14:20 31.0411 -81.2656 22° Northeast 513 950 39,000  Level Jacksonville Center
Sat 22:15:20 31.1739 -81.1978 24° Northeast 513 950 39,000  Level Jacksonville Center
Sat 22:16:20 31.3067 -81.1344 22° Northeast 510 945 39,000  Level Jacksonville Center
Sat 22:17:20 31.4372 -81.0689 23° Northeast 515 954 39,000  Level Jacksonville Center
Sat 22:18:20 31.5719 -81.0053 22° Northeast 515 954 39,000  Level Jacksonville Center
Sat 22:19:20 31.6861 -80.9467 24° Northeast 515 954 39,000  Level Jacksonville Center
Sat 22:20:20 31.8353 -80.8750 22° Northeast 515 954 39,000  Level Jacksonville Center
Sat 22:21:20 31.9553 -80.8186 22° Northeast 515 954 39,000  Level Jacksonville Center
Sat 22:22:20 32.1003 -80.7467 23° Northeast 515 954 39,000  Level Jacksonville Center
Sat 22:23:20 32.2183 -80.6850 24° Northeast 515 954 39,000  Level Jacksonville Center
Sat 22:24:20 32.3528 -80.6178 23° Northeast 515 954 39,000  Level Jacksonville Center
Sat 22:25:20 32.4872 -80.5528 22° Northeast 515 954 39,000  Level Jacksonville Center
Sat 22:26:20 32.6197 -80.4853 23° Northeast 515 954 39,000  Level Jacksonville Center
Sat 22:27:20 32.7500 -80.4200 23° Northeast 510 945 39,000  Level Jacksonville Center
Sat 22:28:20 32.8822 -80.3547 23° Northeast 510 945 39,000  Level Jacksonville Center
Sat 22:29:20 33.0164 -80.2864 23° Northeast 517 958 39,000  Level Jacksonville Center
Sat 22:30:20 33.1486 -80.2181 23° Northeast 512 948 39,000  Level Jacksonville Center
Sat 22:31:20 33.2931 -80.1467 22° Northeast 512 948 39,000  Level Jacksonville Center
Sat 22:32:20 33.4211 -80.0806 23° Northeast 505 935 39,000  Level Jacksonville Center
Sat 22:33:20 33.5511 -80.0117 24° Northeast 505 935 39,000  Level Jacksonville Center
Sat 22:34:20 33.6808 -79.9450 23° Northeast 505 935 39,000  Level Jacksonville Center
Sat 22:35:20 33.8108 -79.8781 23° Northeast 505 935 39,000  Level Jacksonville Center
Sat 22:37:39 34.0981 -79.7297 23° Northeast 508 941 39,000  Level Washington Center
Sat 22:38:39 34.2469 -79.6492 24° Northeast 508 941 39,000  Level Washington Center
Sat 22:39:39 34.3692 -79.5547 33° Northeast 515 954 39,000  Level Washington Center
Sat 22:40:39 34.4911 -79.4597 33° Northeast 520 962 39,000  Level Washington Center
Sat 22:41:39 34.6153 -79.3622 33° Northeast 520 962 39,000  Level Washington Center
Sat 22:42:39 34.7392 -79.2669 32° Northeast 520 962 39,000  Level Washington Center
Sat 22:43:39 34.8631 -79.1711 32° Northeast 520 962 39,000  Level Washington Center
Sat 22:44:39 34.9850 -79.0753 33° Northeast 520 962 39,000  Level Washington Center
Sat 22:45:39 35.1044 -78.9814 33° Northeast 515 954 39,000  Level Washington Center
Sat 22:46:39 35.2261 -78.8872 32° Northeast 515 954 39,000  Level Washington Center
Sat 22:47:39 35.3453 -78.7953 32° Northeast 515 954 39,000  Level Washington Center
Sat 22:48:39 35.4669 -78.6956 34° Northeast 520 962 39,000  Level Washington Center
Sat 22:49:39 35.5778 -78.6081 33° Northeast 520 962 39,000  Level Washington Center
Sat 22:50:39 35.7031 -78.5131 32° Northeast 525 972 39,000  Level Washington Center
Sat 22:51:39 35.8222 -78.4175 33° Northeast 520 962 39,000  Level Washington Center
Sat 22:52:39 35.9414 -78.3192 34° Northeast 514 953 39,000  Level Washington Center
Sat 22:53:39 36.0667 -78.2208 32° Northeast 514 953 39,000  Level Washington Center
Sat 22:54:39 36.1878 -78.1217 33° Northeast 514 953 39,000  Level Washington Center
Sat 22:55:39 36.3089 -78.0225 33° Northeast 514 953 39,000  Level Washington Center
Sat 22:56:39 36.4275 -77.9206 35° Northeast 514 953 39,000  Level Washington Center
Sat 22:57:39 36.5506 -77.8208 33° Northeast 514 953 39,000  Level Washington Center
Sat 22:58:39 36.6753 -77.7233 32° Northeast 519 961 39,000  Level Washington Center
Sat 22:59:39 36.7983 -77.6203 34° Northeast 519 961 39,000  Level Washington Center
Sat 23:00:39 36.9189 -77.5169 34° Northeast 519 961 39,000  Level Washington Center
Sat 23:01:39 37.0414 -77.4158 33° Northeast 519 961 39,000  Level Washington Center
Sat 23:02:39 37.1639 -77.3144 33° Northeast 519 961 39,000  Level Washington Center
Sat 23:03:39 37.2864 -77.2156 33° Northeast 519 961 39,000  Level Washington Center
Sat 23:04:39 37.4256 -77.0956 34° Northeast 531 983 39,000  Level Washington Center
Sat 23:05:39 37.5414 -77.0008 33° Northeast 538 996 39,000  Level Washington Center
Sat 23:06:39 37.6614 -76.8956 35° Northeast 538 996 39,000  Level Washington Center
Sat 23:07:39 37.7836 -76.7900 34° Northeast 538 996 39,000 -200 Level Washington Center
Sat 23:08:39 37.9097 -76.6839 34° Northeast 543 1006 38,600 -650 Descending Washington Center
Sat 23:09:39 38.0314 -76.5778 34° Northeast 538 996 37,700 -950 Descending Washington Center
Sat 23:10:39 38.1553 -76.4711 34° Northeast 538 996 36,700 -950 Descending Washington Center
Sat 23:11:39 38.2833 -76.3589 35° Northeast 543 1006 35,800 -850 Descending Washington Center
Sat 23:12:39 38.4236 -76.2411 33° Northeast 543 1006 35,000 -400 Descending Washington Center
Sat 23:13:39 38.5431 -76.1306 36° Northeast 560 1036 35,000 -400 Level Washington Center
Sat 23:14:39 38.6728 -76.0278 32° Northeast 565 1046 34,200 -900 Descending Washington Center
Sat 23:15:39 38.7942 -75.9167 35° Northeast 549 1017 33,200 -600 Descending Washington Center
Sat 23:16:39 38.9153 -75.8050 36° Northeast 539 998 33,000 -100 Descending Washington Center
Sat 23:17:39 39.0383 -75.7011 33° Northeast 539 998 33,000  Level Washington Center
Sat 23:18:39 39.1614 -75.5889 35° Northeast 539 998 33,000  Level Washington Center
Sat 23:20:59 39.4522 -75.3281 35° Northeast 535 991 33,000  Level New York Center
Sat 23:22:00 39.5753 -75.2178 35° Northeast 535 991 33,000  Level New York Center
Sat 23:22:58 39.6744 -75.1267 35° Northeast 535 991 33,000  Level New York Center
Sat 23:23:59 39.8061 -75.0025 36° Northeast 535 991 33,000  Level New York Center
Sat 23:24:58 39.9292 -74.8856 36° Northeast 540 999 33,000  Level New York Center
Sat 23:25:58 40.0408 -74.7322 46° Northeast 528 978 33,000  Level New York Center
Sat 23:26:58 40.1414 -74.5886 47° Northeast 535 991 33,000  Level New York Center
Sat 23:27:58 40.2372 -74.4578 46° Northeast 541 1003 33,000  Level New York Center
Sat 23:28:59 40.3536 -74.3333 39° Northeast 535 991 33,000  Level New York Center
Sat 23:29:57 40.4678 -74.2111 39° Northeast 535 991 33,000  Level New York Center
Sat 23:31:36 40.6978 -74.1181 17° North 501 929 33,000  Level Boston Center
Sat 23:32:36 40.8606 -74.1031 North 540 999 33,000 -900 Level Boston Center
Sat 23:33:36 41.0067 -74.0767 North 533 987 31,200 -2,100 Descending Boston Center
Sat 23:34:36 41.1531 -74.0556 North 528 978 28,800 -2,300 Descending Boston Center
Sat 23:35:36 41.2908 -74.0342 North 516 956 26,600 -1,450 Descending Boston Center
Sat 23:36:36 41.4203 -74.0125 North 498 922 25,900 -1,500 Descending Boston Center
Sat 23:37:36 41.5394 -73.9931 North 462 856 23,600 -2,350 Descending Boston Center
Sat 23:38:36 41.6606 -73.9739 North 439 813 21,200 -2,400 Descending Boston Center
Sat 23:39:36 41.7775 -73.9600 North 439 813 18,800 -2,400 Descending Boston Center
Sat 23:40:01 41.8256 -73.9528 North 429 795 17,800 -2,000 Descending Boston Center
Sat 23:40:36 41.8922 -73.9406 North 418 774 16,800 -2,060 Descending Boston Center
Sat 23:41:08 41.9528 -73.9336 North 417 772 15,500 -2,700 Descending Boston Center
Sat 23:41:36 42.0050 -73.9236 North 411 761 14,100 -2,600 Descending Boston Center
Sat 23:42:08 42.0636 -73.9139 North 398 737 12,900 -2,100 Descending Boston Center
Sat 23:42:36 42.1033 -73.9008 14° North 406 752 12,000 -2,066 Descending Boston Center
Sat 23:43:09 42.1681 -73.8856 10° North 375 695 10,800 -1,700 Descending Boston Center
Sat 23:43:36 42.2100 -73.8753 10° North 371 687 10,300 -984 Descending Boston Center
Sat 23:44:10 42.2581 -73.8678 North 309 573 9,800 -1,000 Descending Boston Center
Sat 23:44:36 42.2853 -73.8600 12° North 321 594 9,300 -1,600 Descending Boston Center
Sat 23:45:10 42.3353 -73.8528 North 272 504 8,200 -1,900 Descending Boston Center
Sat 23:45:36 42.3708 -73.8397 15° North 285 528 7,400 -1,672 Descending Boston Center
Sat 23:46:11 42.4106 -73.8319 North 269 499 6,500 -1,500 Descending Boston Center
Sat 23:46:36 42.4358 -73.8242 13° North 267 494 5,900 -1,672 Descending Boston Center
Sat 23:47:12 42.4858 -73.8169 North 254 470 4,800 -1,400 Descending Boston Center
Sat 23:47:36 42.5108 -73.8089 13° North 252 467 4,500 -800 Descending Boston Center
Sat 23:48:12 42.5506 -73.8014 North 224 415 4,000 -800 Descending Boston Center
Sat 23:48:36 42.5631 -73.7989 North 228 422 3,700 -984 Descending Boston Center
Sat 23:49:13 42.5986 -73.8025 356° North 163 303 3,000 -900 Descending Boston Center
Sat 23:49:36 42.6111 -73.8000 North 189 349 2,800 -700 Descending Boston Center
Sat 23:50:13 42.6403 -73.8006 359° North 131 243 2,300 -400 Descending Boston Center
Sat 23:50:36 42.6631 -73.8008 359° North 169 312 2,400 -787 Climbing Boston Center
Sat 23:51:14 42.6778 -73.8042 351° North 137 254 1,500 -970 Descending Boston Center
Sat 23:52:15 42.7131 -73.8078 356° North 132 245 800 -689 Descending Boston Center

Login

Don't have an account? Register now (free) for customized features, flight alerts, and more!